Upper Jay, New York
Current Conditions -  °F | °C
As of 9:34 PM on Sunday 23 Nov 2014 (Local Time) from KSLK Reporting Station
Haze Haze  
Wind Chill:   Ceiling: 5000
Heat Index:   Visibility: 2.5mi
Dew Point:   Wind: 0mph
Humidity: 96%   Direction: NA
Pressure: 29.93"   Gusts: NA
Location:  44.34°N, 73.78°W
Report Text: KSLK 240234Z AUTO 00000KT 2 1/2SM BR BKN050 OVC070 02/01 A2993 RMK AO2 T00170011
Loading
Personal Weather Stations






























Interactive Weather Map New forecast layout! Learn more

10-Day Weather Forecast

Advertisements
Track Severe Weather on mobile